Portada
METAR-TAF:

METAR-TAF

Aeroports :

Aeroport d'Essaouira-Mogador

Essaouira, Marroc

latitud: 31-31N, longitud: 009-47W, altitud: 15 m

Observació

L'informe es va fer fa 1 hora i 22 minuts, a les 16:00 UTC
Vent 14 kt del Est/Nord-Est
Temperatura 29°C
Humitat 22%
Pressió 1022 hPa
Visibilitat: 8000 m

METAR: GMMI 261600Z 06014KT 8000 NSC 29/05 Q1022 NOSIG

Hora: 18:22 (17:22 UTC)

Pronòstic

L'informe es va fer fa 6 hores i 22 minuts, a les 11:00 UTC
Pronòstic vàlid del 26 a les 12 UTC al 27 a les 18 UTC
Vent 11 kt del Nord-Oest
Visibilitat: 8000 m

TAF: GMMI 261100Z 2612/2718 32011KT 8000 NSC

Observacions i pronòstics meteorològics de més de 4000 aeroports (METAR i TAF).

Les estacions disponibles són els punts grocs i vermells al mapa.

Posi el ratolí al punt desitjat per veure el nom de l'estació.

Feu clic per veure les observacions i els pronòstics meteorològics.

Per canviar el mapa: feu clic els botons verds amb una creu de color negre per apropar; al botó verd amb un guió per allunyar la imatge; o en les fletxes verdes per a mapes adjacents.


METAR-TAF: